Time;durP1;ratioP1;P1;durP2;ratioP2;P2;SDS_P1;SDS_P2;PMS_P1;PMS_P2;Temp;Humidity;BMP_temperature;BMP_pressure;BME280_temperature;BME280_humidity;BME280_pressure;Samples;Min_cycle;Max_cycle;Signal;HPM_P1;HPM_P2
2023/07/17 00:00:12;;;;;;;7.70;3.80;;;20.30;99.90;;;;;;2091120;28;20032;-71
2023/07/17 00:01:12;;;;;;;5.53;3.90;;;20.30;99.90;;;;;;2091574;28;20479;-71
2023/07/17 00:02:13;;;;;;;7.97;4.22;;;20.30;99.90;;;;;;2091623;28;20103;-71
2023/07/17 00:03:13;;;;;;;7.00;4.50;;;20.30;99.90;;;;;;2091657;28;20078;-71
2023/07/17 00:04:14;;;;;;;5.75;4.35;;;20.20;99.90;;;;;;2093960;28;20063;-71
2023/07/17 00:05:15;;;;;;;4.38;3.95;;;20.20;99.90;;;;;;2091867;28;20028;-71
2023/07/17 00:06:15;;;;;;;4.45;4.05;;;20.20;99.90;;;;;;2092086;28;20088;-71
2023/07/17 00:07:16;;;;;;;5.82;4.75;;;20.20;99.90;;;;;;2093933;28;20021;-71
2023/07/17 00:08:16;;;;;;;6.68;4.38;;;20.20;99.90;;;;;;2092390;28;20083;-71
2023/07/17 00:09:17;;;;;;;6.55;4.65;;;20.20;99.90;;;;;;2093052;28;20480;-71
2023/07/17 00:10:18;;;;;;;6.90;3.88;;;20.10;99.90;;;;;;2092305;28;20053;-71
2023/07/17 00:11:18;;;;;;;6.97;4.15;;;20.10;99.90;;;;;;2093247;28;20357;-71
2023/07/17 00:12:19;;;;;;;4.45;4.00;;;20.10;99.90;;;;;;2092413;28;20024;-71
2023/07/17 00:13:19;;;;;;;7.07;4.28;;;20.00;99.90;;;;;;2092137;28;20021;-71
2023/07/17 00:14:20;;;;;;;7.55;4.07;;;20.00;99.90;;;;;;2093226;28;20023;-71
2023/07/17 00:15:20;;;;;;;5.53;3.90;;;20.00;99.90;;;;;;2092173;28;20024;-71
2023/07/17 00:16:21;;;;;;;5.88;3.78;;;20.00;99.90;;;;;;2092183;28;20025;-71
2023/07/17 00:17:22;;;;;;;6.13;4.22;;;20.00;99.90;;;;;;2092805;28;20020;-71
2023/07/17 00:18:22;;;;;;;5.68;4.15;;;19.90;99.90;;;;;;2092543;28;20026;-71
2023/07/17 00:19:23;;;;;;;5.90;4.10;;;19.90;99.90;;;;;;2093241;28;20032;-71
2023/07/17 00:20:23;;;;;;;6.05;4.05;;;19.90;99.90;;;;;;2091183;28;20032;-71
2023/07/17 00:21:24;;;;;;;5.15;4.45;;;19.90;99.90;;;;;;2092830;28;20017;-71
2023/07/17 00:22:24;;;;;;;6.97;4.30;;;19.90;99.90;;;;;;2090644;28;20485;-71
2023/07/17 00:23:25;;;;;;;6.43;4.38;;;19.90;99.90;;;;;;2091093;28;20021;-71
2023/07/17 00:24:25;;;;;;;7.15;4.57;;;19.90;99.90;;;;;;2092002;28;20188;-71
2023/07/17 00:25:26;;;;;;;9.55;5.10;;;19.90;99.90;;;;;;2093493;28;20083;-71
2023/07/17 00:26:28;;;;;;;7.88;4.82;;;19.80;99.90;;;;;;2091900;28;20033;-71
2023/07/17 00:27:28;;;;;;;7.53;4.75;;;19.80;99.90;;;;;;2091819;28;20111;-71
2023/07/17 00:28:29;;;;;;;5.45;4.10;;;19.80;99.90;;;;;;2090948;28;20035;-71
2023/07/17 00:29:30;;;;;;;5.43;4.20;;;19.80;99.90;;;;;;2092068;28;20059;-71
2023/07/17 00:30:30;;;;;;;8.40;4.60;;;19.80;99.90;;;;;;2094594;28;20032;-71
2023/07/17 00:31:31;;;;;;;8.15;4.80;;;19.80;99.90;;;;;;2091459;28;20029;-71
2023/07/17 00:32:31;;;;;;;5.53;4.25;;;19.80;99.90;;;;;;2091782;28;20028;-71
2023/07/17 00:33:32;;;;;;;9.45;4.70;;;19.80;99.90;;;;;;2092164;28;20025;-71
2023/07/17 00:34:32;;;;;;;6.50;4.30;;;19.80;99.90;;;;;;2091671;28;20061;-71
2023/07/17 00:35:33;;;;;;;7.88;4.35;;;19.80;99.90;;;;;;2093766;28;20380;-71
2023/07/17 00:36:33;;;;;;;5.85;4.35;;;19.80;99.90;;;;;;2092630;28;20055;-71
2023/07/17 00:37:34;;;;;;;6.32;4.20;;;19.80;99.90;;;;;;2091463;28;20020;-71
2023/07/17 00:38:34;;;;;;;6.47;4.30;;;19.80;99.90;;;;;;2093285;28;20024;-71
2023/07/17 00:39:35;;;;;;;5.20;4.10;;;19.80;99.90;;;;;;2092769;28;20127;-71
2023/07/17 00:40:39;;;;;;;7.90;4.47;;;19.80;99.90;;;;;;2092406;28;20107;-71
2023/07/17 00:41:40;;;;;;;8.25;4.30;;;19.80;99.90;;;;;;2091972;28;20021;-71
2023/07/17 00:42:40;;;;;;;8.48;4.35;;;19.80;99.90;;;;;;2091131;28;20709;-71
2023/07/17 00:43:41;;;;;;;6.75;4.63;;;19.80;99.90;;;;;;2090895;28;20027;-71
2023/07/17 00:44:41;;;;;;;6.90;4.05;;;19.80;99.90;;;;;;2093493;28;20021;-71
2023/07/17 00:45:44;;;;;;;7.15;4.25;;;19.80;99.90;;;;;;2093499;28;20071;-71
2023/07/17 00:46:46;;;;;;;5.05;4.28;;;19.80;99.90;;;;;;2092293;28;20013;-71
2023/07/17 00:47:47;;;;;;;4.90;3.33;;;19.80;99.90;;;;;;2092979;28;20469;-71
2023/07/17 00:48:47;;;;;;;4.38;3.30;;;19.80;99.90;;;;;;2092030;28;20659;-71
2023/07/17 00:49:48;;;;;;;5.40;3.83;;;19.80;99.90;;;;;;2092622;28;20028;-71
2023/07/17 00:50:51;;;;;;;5.60;3.75;;;19.80;99.90;;;;;;2093899;28;20429;-71
2023/07/17 00:51:53;;;;;;;5.68;3.38;;;19.80;99.90;;;;;;2095594;28;20082;-71
2023/07/17 00:52:55;;;;;;;4.30;3.05;;;19.80;99.90;;;;;;2095570;28;20790;-71
2023/07/17 00:53:56;;;;;;;5.75;3.33;;;19.80;99.90;;;;;;2091612;28;20625;-71
2023/07/17 00:54:57;;;;;;;6.78;4.00;;;19.80;99.90;;;;;;2094071;28;20782;-71
2023/07/17 00:55:57;;;;;;;3.70;3.10;;;19.80;99.90;;;;;;2093305;28;20503;-71
2023/07/17 00:57:01;;;;;;;5.05;3.55;;;19.80;99.90;;;;;;2093796;28;20514;-71
2023/07/17 00:58:02;;;;;;;7.15;3.35;;;19.80;99.90;;;;;;2092090;28;20136;-71
2023/07/17 00:59:04;;;;;;;5.70;3.13;;;19.80;99.90;;;;;;2092536;28;20060;-71
2023/07/17 01:00:08;;;;;;;5.40;2.92;;;19.90;99.90;;;;;;2090256;28;20036;-71
2023/07/17 01:01:09;;;;;;;8.43;3.40;;;19.80;99.90;;;;;;2098130;28;20025;-71
2023/07/17 01:02:12;;;;;;;6.57;3.08;;;19.80;99.90;;;;;;2096238;28;20020;-71
2023/07/17 01:03:14;;;;;;;4.85;3.00;;;19.80;99.90;;;;;;2092737;28;20020;-71
2023/07/17 01:04:14;;;;;;;4.75;2.78;;;19.80;99.90;;;;;;2094354;28;20038;-71
2023/07/17 01:05:15;;;;;;;5.13;3.28;;;19.80;99.90;;;;;;2092140;28;20028;-71
2023/07/17 01:06:15;;;;;;;5.70;3.00;;;19.80;99.90;;;;;;2092700;28;20029;-71
2023/07/17 01:07:16;;;;;;;4.57;2.85;;;19.80;99.90;;;;;;2093105;28;20021;-71
2023/07/17 01:08:16;;;;;;;5.07;2.70;;;19.90;99.90;;;;;;2092768;28;20115;-71
2023/07/17 01:09:21;;;;;;;4.68;2.92;;;19.80;99.90;;;;;;2091665;28;20048;-71
2023/07/17 01:10:22;;;;;;;4.70;2.38;;;19.90;99.90;;;;;;2091903;28;20013;-71
2023/07/17 01:11:23;;;;;;;4.93;2.90;;;19.80;99.90;;;;;;2092512;28;20038;-71
2023/07/17 01:12:24;;;;;;;3.58;2.92;;;19.90;99.90;;;;;;2094725;28;20456;-71
2023/07/17 01:13:24;;;;;;;3.70;2.67;;;19.90;99.90;;;;;;2090948;28;20481;-71
2023/07/17 01:14:25;;;;;;;3.70;2.55;;;19.90;99.90;;;;;;2092397;28;20036;-71
2023/07/17 01:15:25;;;;;;;4.07;2.88;;;19.90;99.90;;;;;;2092845;28;20433;-71
2023/07/17 01:16:26;;;;;;;4.03;2.83;;;19.90;99.90;;;;;;2091950;28;20017;-71
2023/07/17 01:17:26;;;;;;;6.07;2.88;;;19.90;99.90;;;;;;2091761;28;20025;-71
2023/07/17 01:18:27;;;;;;;5.15;3.08;;;19.90;99.90;;;;;;2092214;28;20057;-71
2023/07/17 01:19:27;;;;;;;4.70;2.60;;;20.00;99.90;;;;;;2091814;28;20029;-71
2023/07/17 01:20:28;;;;;;;4.53;2.95;;;20.00;99.90;;;;;;2092378;28;20038;-71
2023/07/17 01:21:30;;;;;;;4.38;2.85;;;20.00;99.90;;;;;;2091844;28;20020;-71
2023/07/17 01:22:35;;;;;;;6.28;2.92;;;20.00;99.90;;;;;;2092081;28;20074;-71
2023/07/17 01:23:35;;;;;;;5.05;2.92;;;20.00;99.90;;;;;;2090873;28;20021;-71
2023/07/17 01:24:36;;;;;;;4.05;3.05;;;20.00;99.90;;;;;;2090512;28;20528;-71
2023/07/17 01:25:36;;;;;;;2.78;2.55;;;20.10;99.90;;;;;;2093661;28;20016;-71
2023/07/17 01:26:37;;;;;;;3.95;2.55;;;20.10;99.90;;;;;;2092134;28;20067;-71
2023/07/17 01:27:37;;;;;;;3.03;2.67;;;20.10;99.90;;;;;;2091957;28;20034;-71
2023/07/17 01:28:39;;;;;;;8.45;3.05;;;20.10;99.90;;;;;;2093174;28;20025;-71
2023/07/17 01:29:39;;;;;;;3.92;3.00;;;20.10;99.90;;;;;;2091593;28;20037;-71
2023/07/17 01:30:40;;;;;;;5.30;3.17;;;20.10;99.90;;;;;;2091733;28;20057;-71
2023/07/17 01:31:41;;;;;;;5.32;2.90;;;20.00;99.90;;;;;;2090845;28;20024;-71
2023/07/17 01:32:42;;;;;;;4.38;2.70;;;20.10;99.90;;;;;;2092058;28;20055;-71
2023/07/17 01:33:42;;;;;;;3.17;2.53;;;20.10;99.90;;;;;;2089267;28;20021;-71
2023/07/17 01:34:43;;;;;;;3.00;2.70;;;20.10;99.90;;;;;;2089769;28;20028;-71
2023/07/17 01:35:44;;;;;;;2.63;2.40;;;20.10;99.90;;;;;;2092722;28;20031;-71
2023/07/17 01:36:45;;;;;;;3.70;2.78;;;20.10;99.90;;;;;;2090987;28;20023;-71
2023/07/17 01:37:45;;;;;;;3.10;2.80;;;20.10;99.90;;;;;;2090567;28;20033;-71
2023/07/17 01:38:46;;;;;;;4.93;2.70;;;20.10;99.90;;;;;;2092180;28;20060;-71
2023/07/17 01:39:46;;;;;;;2.92;2.60;;;20.10;99.90;;;;;;2091488;28;20029;-71
2023/07/17 01:40:47;;;;;;;3.42;2.90;;;20.10;99.90;;;;;;2092356;28;20480;-71
2023/07/17 01:41:48;;;;;;;3.65;2.95;;;20.10;99.90;;;;;;2093876;28;20060;-71
2023/07/17 01:42:48;;;;;;;3.70;2.55;;;20.00;99.90;;;;;;2091195;28;20025;-71
2023/07/17 01:43:49;;;;;;;4.20;2.78;;;20.10;99.90;;;;;;2086224;28;20100;-71
2023/07/17 01:44:50;;;;;;;4.18;2.67;;;20.10;99.90;;;;;;2094675;28;20021;-71
2023/07/17 01:45:50;;;;;;;2.83;2.33;;;20.00;99.90;;;;;;2095513;28;20111;-71
2023/07/17 01:46:51;;;;;;;3.83;2.90;;;20.00;99.90;;;;;;2095024;28;20028;-71
2023/07/17 01:47:51;;;;;;;5.63;3.03;;;20.00;99.90;;;;;;2093085;28;20082;-71
2023/07/17 01:48:52;;;;;;;4.35;3.17;;;20.00;99.90;;;;;;2092157;28;20020;-71
2023/07/17 01:49:53;;;;;;;3.00;2.75;;;20.00;99.90;;;;;;2090881;28;20913;-71
2023/07/17 01:50:53;;;;;;;5.70;2.75;;;20.00;99.90;;;;;;2090998;28;20123;-71
2023/07/17 01:51:54;;;;;;;5.20;2.78;;;20.00;99.90;;;;;;2092426;28;20036;-71
2023/07/17 01:52:54;;;;;;;5.22;2.78;;;20.00;99.90;;;;;;2090919;28;20028;-71
2023/07/17 01:53:55;;;;;;;4.43;3.00;;;20.00;99.90;;;;;;2090722;28;20111;-71
2023/07/17 01:54:55;;;;;;;3.33;3.00;;;20.00;99.90;;;;;;2089170;28;20093;-71
2023/07/17 01:55:56;;;;;;;3.78;2.75;;;20.00;99.90;;;;;;2090607;28;20036;-71
2023/07/17 01:56:57;;;;;;;5.03;2.50;;;20.00;99.90;;;;;;2091390;28;20036;-71
2023/07/17 01:57:58;;;;;;;3.95;2.78;;;20.00;99.90;;;;;;2092596;28;20361;-71
2023/07/17 01:58:59;;;;;;;4.28;2.78;;;20.00;99.90;;;;;;2093980;28;20025;-71
2023/07/17 01:59:59;;;;;;;6.72;3.10;;;20.00;99.90;;;;;;2091209;28;20084;-71
2023/07/17 02:01:00;;;;;;;4.63;3.20;;;20.00;99.90;;;;;;2082517;28;20021;-71
2023/07/17 02:02:00;;;;;;;3.28;2.97;;;20.00;99.90;;;;;;2093814;28;20100;-71
2023/07/17 02:03:02;;;;;;;4.05;2.53;;;20.00;99.90;;;;;;2092627;28;20469;-71
2023/07/17 02:04:02;;;;;;;7.28;3.20;;;20.00;99.90;;;;;;2083953;28;20033;-71
2023/07/17 02:05:03;;;;;;;5.18;3.50;;;20.00;99.90;;;;;;2087774;28;20087;-71
2023/07/17 02:06:05;;;;;;;4.97;2.78;;;20.00;99.90;;;;;;2094474;28;20027;-71
2023/07/17 02:07:06;;;;;;;4.22;3.15;;;20.00;99.90;;;;;;2095277;28;20028;-71
2023/07/17 02:08:06;;;;;;;5.63;3.75;;;19.90;99.90;;;;;;2095472;28;20302;-71
2023/07/17 02:09:08;;;;;;;6.80;3.30;;;19.90;99.90;;;;;;2095429;28;20565;-71
2023/07/17 02:10:08;;;;;;;6.18;3.42;;;19.90;99.90;;;;;;2092628;28;20106;-71
2023/07/17 02:11:09;;;;;;;4.60;3.85;;;19.90;99.90;;;;;;2080943;28;20079;-71
2023/07/17 02:12:09;;;;;;;5.82;3.72;;;19.90;99.90;;;;;;2075457;28;20033;-71
2023/07/17 02:13:10;;;;;;;4.82;3.22;;;19.80;99.90;;;;;;2092476;28;20025;-71
2023/07/17 02:14:11;;;;;;;6.50;3.80;;;19.90;99.90;;;;;;2091823;28;20032;-72
2023/07/17 02:15:12;;;;;;;5.47;3.25;;;19.90;99.90;;;;;;2090062;28;20025;-72
2023/07/17 02:16:13;;;;;;;4.40;2.63;;;19.80;99.90;;;;;;2092114;28;20013;-72
2023/07/17 02:17:14;;;;;;;4.88;3.33;;;19.90;99.90;;;;;;2091671;28;20490;-72
2023/07/17 02:18:14;;;;;;;4.13;3.25;;;19.80;99.90;;;;;;2090869;28;20062;-72
2023/07/17 02:19:16;;;;;;;6.47;3.72;;;19.80;99.90;;;;;;2092619;28;20028;-72
2023/07/17 02:20:16;;;;;;;3.75;2.60;;;19.80;99.90;;;;;;2092610;28;20026;-72
2023/07/17 02:21:17;;;;;;;4.53;2.55;;;19.80;99.90;;;;;;2092084;28;20032;-72
2023/07/17 02:22:18;;;;;;;4.55;3.13;;;19.80;99.90;;;;;;2091261;28;20064;-72
2023/07/17 02:23:18;;;;;;;5.03;3.10;;;19.80;99.90;;;;;;2091829;28;20667;-72
2023/07/17 02:24:19;;;;;;;3.88;3.22;;;19.80;99.90;;;;;;2090606;28;20918;-72
2023/07/17 02:25:20;;;;;;;3.97;2.75;;;19.80;99.90;;;;;;2090576;28;20436;-72
2023/07/17 02:26:20;;;;;;;4.72;3.30;;;19.80;99.90;;;;;;2089791;28;20021;-72
2023/07/17 02:27:21;;;;;;;5.93;3.47;;;19.80;99.90;;;;;;2091296;28;20504;-71
2023/07/17 02:28:21;;;;;;;4.13;3.00;;;19.80;99.90;;;;;;2090012;28;20039;-71
2023/07/17 02:29:22;;;;;;;5.18;3.03;;;19.80;99.90;;;;;;2092374;28;20025;-72
2023/07/17 02:30:23;;;;;;;5.03;3.65;;;19.70;99.90;;;;;;2091642;28;20035;-72
2023/07/17 02:31:23;;;;;;;3.75;3.20;;;19.80;99.90;;;;;;2093673;28;20031;-72
2023/07/17 02:32:25;;;;;;;4.68;3.22;;;19.80;99.90;;;;;;2091512;28;20027;-71
2023/07/17 02:33:26;;;;;;;5.03;3.65;;;19.80;99.90;;;;;;2092668;28;20024;-71
2023/07/17 02:34:26;;;;;;;4.10;3.22;;;19.70;99.90;;;;;;2089419;28;20024;-71
2023/07/17 02:35:27;;;;;;;5.97;3.45;;;19.70;99.90;;;;;;2089365;28;20048;-71
2023/07/17 02:36:28;;;;;;;5.57;3.42;;;19.70;99.90;;;;;;2089892;28;20095;-71
2023/07/17 02:37:28;;;;;;;4.38;3.33;;;19.70;99.90;;;;;;2092462;28;20028;-71
2023/07/17 02:38:29;;;;;;;7.70;3.35;;;19.70;99.90;;;;;;2093670;28;20095;-71
2023/07/17 02:39:30;;;;;;;5.97;3.50;;;19.70;99.90;;;;;;2092697;28;20067;-71
2023/07/17 02:40:30;;;;;;;6.43;3.72;;;19.70;99.90;;;;;;2090917;28;20020;-71
2023/07/17 02:41:31;;;;;;;4.57;3.10;;;19.80;99.90;;;;;;2093219;28;20103;-71
2023/07/17 02:42:31;;;;;;;4.80;3.08;;;19.70;99.90;;;;;;2092546;28;20069;-71
2023/07/17 02:43:32;;;;;;;4.65;3.15;;;19.70;99.90;;;;;;2091808;28;20028;-71
2023/07/17 02:44:32;;;;;;;3.70;2.90;;;19.70;99.90;;;;;;2089343;28;20017;-71
2023/07/17 02:45:33;;;;;;;4.85;3.00;;;19.70;99.90;;;;;;2090764;28;20025;-72
2023/07/17 02:46:34;;;;;;;3.88;2.53;;;19.70;99.90;;;;;;2091068;28;20051;-72
2023/07/17 02:47:34;;;;;;;3.13;2.80;;;19.70;99.90;;;;;;2090363;28;20031;-72
2023/07/17 02:48:35;;;;;;;3.72;2.97;;;19.70;99.90;;;;;;2093383;28;20026;-71
2023/07/17 02:49:37;;;;;;;4.82;2.55;;;19.70;99.90;;;;;;2091484;28;20071;-71
2023/07/17 02:50:37;;;;;;;4.70;2.85;;;19.70;99.90;;;;;;2090035;28;20020;-71
2023/07/17 02:51:38;;;;;;;4.63;2.72;;;19.70;99.90;;;;;;2092973;28;20029;-71
2023/07/17 02:52:38;;;;;;;4.47;2.72;;;19.70;99.90;;;;;;2089578;28;20037;-71
2023/07/17 02:53:39;;;;;;;6.35;2.55;;;19.70;99.90;;;;;;2091813;28;20197;-71
2023/07/17 02:54:40;;;;;;;3.20;2.70;;;19.70;99.90;;;;;;2093791;28;20020;-72
2023/07/17 02:55:40;;;;;;;3.45;3.10;;;19.70;99.90;;;;;;2091657;28;20128;-71
2023/07/17 02:56:41;;;;;;;3.15;2.60;;;19.70;99.90;;;;;;2096032;28;20021;-71
2023/07/17 02:57:41;;;;;;;4.55;2.78;;;19.70;99.90;;;;;;2093515;28;20024;-71
2023/07/17 02:58:42;;;;;;;3.22;2.50;;;19.60;99.90;;;;;;2092263;28;20117;-71
2023/07/17 02:59:43;;;;;;;4.15;2.88;;;19.60;99.90;;;;;;2092724;28;20043;-71
2023/07/17 03:00:45;;;;;;;4.18;2.83;;;19.60;99.90;;;;;;2094719;28;20039;-71
2023/07/17 03:01:47;;;;;;;2.70;2.30;;;19.70;99.90;;;;;;2093707;28;20044;-71
2023/07/17 03:02:51;;;;;;;4.93;2.80;;;19.60;99.90;;;;;;2092082;28;20554;-71
2023/07/17 03:03:51;;;;;;;3.47;2.50;;;19.60;99.90;;;;;;2091897;28;20021;-71
2023/07/17 03:04:52;;;;;;;3.15;2.40;;;19.60;99.90;;;;;;2091444;28;20027;-71
2023/07/17 03:05:56;;;;;;;3.72;2.80;;;19.60;99.90;;;;;;2094009;28;20098;-71
2023/07/17 03:06:57;;;;;;;3.40;2.58;;;19.60;99.90;;;;;;2093421;28;20037;-71
2023/07/17 03:07:57;;;;;;;3.45;2.63;;;19.60;99.90;;;;;;2092784;28;20025;-71
2023/07/17 03:08:58;;;;;;;2.70;2.10;;;19.60;99.90;;;;;;2092109;28;20082;-71
2023/07/17 03:09:58;;;;;;;3.00;2.25;;;19.60;99.90;;;;;;2094495;28;20037;-71
2023/07/17 03:11:03;;;;;;;3.25;2.28;;;19.60;99.90;;;;;;2093964;28;20039;-71
2023/07/17 03:12:04;;;;;;;4.28;2.70;;;19.60;99.90;;;;;;2094052;28;20039;-71
2023/07/17 03:13:05;;;;;;;3.13;2.55;;;19.50;99.90;;;;;;2092651;28;20029;-71
2023/07/17 03:14:05;;;;;;;4.25;2.72;;;19.60;99.90;;;;;;2093048;28;20119;-71
2023/07/17 03:15:07;;;;;;;4.82;3.00;;;19.60;99.90;;;;;;2092933;28;20052;-71
2023/07/17 03:16:08;;;;;;;4.80;2.60;;;19.60;99.90;;;;;;2093618;28;20419;-71
2023/07/17 03:17:08;;;;;;;2.65;2.28;;;19.50;99.90;;;;;;2093043;28;20505;-71
2023/07/17 03:18:09;;;;;;;3.58;2.67;;;19.50;99.90;;;;;;2091990;28;20460;-71
2023/07/17 03:19:10;;;;;;;4.15;2.40;;;19.50;99.90;;;;;;2093680;28;20052;-71
2023/07/17 03:20:11;;;;;;;4.68;2.50;;;19.50;99.90;;;;;;2092376;28;20113;-71
2023/07/17 03:21:12;;;;;;;3.20;2.50;;;19.50;99.90;;;;;;2092833;28;20017;-71
2023/07/17 03:22:12;;;;;;;2.95;2.20;;;19.50;99.90;;;;;;2092752;28;20036;-71
2023/07/17 03:23:13;;;;;;;2.53;1.88;;;19.50;99.90;;;;;;2095222;28;20017;-71
2023/07/17 03:24:13;;;;;;;5.95;2.35;;;19.50;99.90;;;;;;2093090;28;20501;-71
2023/07/17 03:25:14;;;;;;;3.90;2.30;;;19.50;99.90;;;;;;2092505;28;20043;-71
2023/07/17 03:26:14;;;;;;;3.45;2.50;;;19.50;99.90;;;;;;2092088;28;20031;-71
2023/07/17 03:27:15;;;;;;;3.85;2.33;;;19.50;99.90;;;;;;2092997;28;20025;-71
2023/07/17 03:28:16;;;;;;;5.25;2.13;;;19.50;99.90;;;;;;2093209;28;20499;-71
2023/07/17 03:29:16;;;;;;;3.03;2.00;;;19.50;99.90;;;;;;2093764;28;20048;-72
2023/07/17 03:30:17;;;;;;;3.03;2.03;;;19.50;99.90;;;;;;2091759;28;20021;-71
2023/07/17 03:31:18;;;;;;;2.47;2.10;;;19.50;99.90;;;;;;2092422;28;20627;-71
2023/07/17 03:32:18;;;;;;;2.65;2.03;;;19.50;99.90;;;;;;2091734;28;20472;-71
2023/07/17 03:33:19;;;;;;;2.50;2.30;;;19.40;99.90;;;;;;2092164;28;20031;-71
2023/07/17 03:34:19;;;;;;;4.82;2.72;;;19.40;99.90;;;;;;2092913;28;20388;-71
2023/07/17 03:35:20;;;;;;;3.25;1.90;;;19.40;99.90;;;;;;2094454;28;20024;-71
2023/07/17 03:36:20;;;;;;;2.40;2.20;;;19.40;99.90;;;;;;2095561;28;20016;-71
2023/07/17 03:37:21;;;;;;;3.92;1.98;;;19.50;99.90;;;;;;2094136;28;20111;-71
2023/07/17 03:38:21;;;;;;;3.08;2.03;;;19.40;99.90;;;;;;2094644;28;20767;-72
2023/07/17 03:39:22;;;;;;;2.72;2.30;;;19.40;99.90;;;;;;2097548;28;20024;-72
2023/07/17 03:40:23;;;;;;;2.92;2.10;;;19.40;99.90;;;;;;2095126;28;20492;-72
2023/07/17 03:41:23;;;;;;;4.05;2.35;;;19.40;99.90;;;;;;2092638;28;20415;-72
2023/07/17 03:42:24;;;;;;;3.50;2.08;;;19.40;99.90;;;;;;2091872;28;20031;-72
2023/07/17 03:43:24;;;;;;;3.65;1.92;;;19.40;99.90;;;;;;2093963;28;20097;-72
2023/07/17 03:44:25;;;;;;;3.33;2.00;;;19.40;99.90;;;;;;2094142;28;20047;-72
2023/07/17 03:45:25;;;;;;;3.67;2.63;;;19.40;99.90;;;;;;2094387;28;20021;-72
2023/07/17 03:46:26;;;;;;;3.42;2.10;;;19.40;99.90;;;;;;2094396;28;20021;-72
2023/07/17 03:47:26;;;;;;;2.20;1.70;;;19.40;99.90;;;;;;2094456;28;20120;-72
2023/07/17 03:48:27;;;;;;;3.15;2.25;;;19.40;99.90;;;;;;2094497;28;20100;-72
2023/07/17 03:49:28;;;;;;;3.20;1.83;;;19.40;99.90;;;;;;2092733;28;20025;-72
2023/07/17 03:50:30;;;;;;;4.22;2.35;;;19.40;99.90;;;;;;2092352;28;20108;-73
2023/07/17 03:51:30;;;;;;;4.13;2.40;;;19.40;99.90;;;;;;2092811;28;20020;-73
2023/07/17 03:52:31;;;;;;;2.75;2.22;;;19.40;99.90;;;;;;2092336;28;20021;-73
2023/07/17 03:53:31;;;;;;;4.93;2.42;;;19.40;99.90;;;;;;2094495;28;20016;-73
2023/07/17 03:54:32;;;;;;;3.92;2.40;;;19.30;99.90;;;;;;2093225;28;20472;-73
2023/07/17 03:55:33;;;;;;;3.78;2.40;;;19.30;99.90;;;;;;2094111;28;20033;-73
2023/07/17 03:56:36;;;;;;;4.25;2.50;;;19.30;99.90;;;;;;2093478;28;20111;-73
2023/07/17 03:57:36;;;;;;;3.45;1.75;;;19.30;99.90;;;;;;2090848;28;20023;-73
2023/07/17 03:58:37;;;;;;;3.30;2.28;;;19.30;99.90;;;;;;2091145;28;20027;-73
2023/07/17 04:00:10;;;;;;;3.40;2.20;;;19.30;99.90;;;;;;2093051;28;20032;-73
2023/07/17 04:01:11;;;;;;;3.63;2.30;;;19.20;99.90;;;;;;2091018;28;20047;-73
2023/07/17 04:02:11;;;;;;;3.10;1.90;;;19.20;99.90;;;;;;2092426;28;20050;-73
2023/07/17 04:03:12;;;;;;;2.75;1.98;;;19.20;99.90;;;;;;2092986;28;20451;-73
2023/07/17 04:04:12;;;;;;;3.38;2.30;;;19.20;99.90;;;;;;2095922;28;20021;-73
2023/07/17 04:05:13;;;;;;;2.13;1.92;;;19.20;99.90;;;;;;2096419;28;20029;-73
2023/07/17 04:06:13;;;;;;;3.75;1.90;;;19.20;99.90;;;;;;2091196;28;20016;-73
2023/07/17 04:07:14;;;;;;;3.03;1.85;;;19.20;99.90;;;;;;2092321;28;20039;-73
2023/07/17 04:08:15;;;;;;;3.55;2.03;;;19.20;99.90;;;;;;2092115;28;20676;-73
2023/07/17 04:09:16;;;;;;;2.95;2.15;;;19.20;99.90;;;;;;2090804;28;20452;-73
2023/07/17 04:10:17;;;;;;;2.42;2.10;;;19.20;99.90;;;;;;2090471;28;20017;-73
2023/07/17 04:11:17;;;;;;;3.72;2.38;;;19.20;99.90;;;;;;2093439;28;20021;-73
2023/07/17 04:12:18;;;;;;;2.60;2.40;;;19.20;99.90;;;;;;2091499;28;20025;-73
2023/07/17 04:13:18;;;;;;;3.28;1.80;;;19.20;99.90;;;;;;2092934;28;20040;-73
2023/07/17 04:14:19;;;;;;;3.63;2.10;;;19.20;99.90;;;;;;2100147;28;20039;-73
2023/07/17 04:15:19;;;;;;;3.88;2.20;;;19.20;99.90;;;;;;2099338;28;20119;-73
2023/07/17 04:16:20;;;;;;;3.50;2.30;;;19.20;99.90;;;;;;2092305;28;20021;-73
2023/07/17 04:17:21;;;;;;;3.20;2.08;;;19.20;99.90;;;;;;2093218;28;20384;-73
2023/07/17 04:18:21;;;;;;;3.13;2.13;;;19.20;99.90;;;;;;2091922;28;20023;-73
2023/07/17 04:19:22;;;;;;;3.03;2.72;;;19.10;99.90;;;;;;2093627;28;20112;-73
2023/07/17 04:20:23;;;;;;;2.92;1.95;;;19.10;99.90;;;;;;2093089;28;20074;-72
2023/07/17 04:21:23;;;;;;;4.45;2.13;;;19.10;99.90;;;;;;2093717;28;20025;-73
2023/07/17 04:22:24;;;;;;;4.35;2.60;;;19.10;99.90;;;;;;2091257;28;20032;-72
2023/07/17 04:23:24;;;;;;;3.17;2.17;;;19.10;99.90;;;;;;2093376;28;20016;-73
2023/07/17 04:24:25;;;;;;;3.60;2.10;;;19.10;99.90;;;;;;2093075;28;20018;-73
2023/07/17 04:25:25;;;;;;;3.80;1.95;;;19.10;99.90;;;;;;2093150;28;20056;-73
2023/07/17 04:26:26;;;;;;;4.05;2.45;;;19.10;99.90;;;;;;2094503;28;20090;-72
2023/07/17 04:27:26;;;;;;;2.45;2.00;;;19.10;99.90;;;;;;2094223;28;20017;-72
2023/07/17 04:28:27;;;;;;;3.55;2.00;;;19.10;99.90;;;;;;2092459;28;20050;-73
2023/07/17 04:29:28;;;;;;;3.65;2.22;;;19.10;99.90;;;;;;2092270;28;20096;-73
2023/07/17 04:30:28;;;;;;;2.53;2.00;;;19.10;99.90;;;;;;2091504;28;20021;-73
2023/07/17 04:31:29;;;;;;;3.15;2.30;;;19.10;99.90;;;;;;2091743;28;20053;-73
2023/07/17 04:32:30;;;;;;;3.63;2.25;;;19.20;99.90;;;;;;2093241;28;20388;-73
2023/07/17 04:33:32;;;;;;;4.85;2.50;;;19.40;99.90;;;;;;2093126;28;20020;-73
2023/07/17 04:34:33;;;;;;;3.80;2.00;;;19.50;99.90;;;;;;2093571;28;20027;-73
2023/07/17 04:35:38;;;;;;;2.90;1.80;;;19.70;99.90;;;;;;2093773;28;20038;-73
2023/07/17 04:36:38;;;;;;;3.67;2.10;;;19.90;99.90;;;;;;2092962;28;20426;-73
2023/07/17 04:37:40;;;;;;;2.65;2.17;;;20.00;99.90;;;;;;2093579;28;20126;-73
2023/07/17 04:38:40;;;;;;;3.00;2.20;;;20.10;99.90;;;;;;2092587;28;20071;-72
2023/07/17 04:39:41;;;;;;;3.60;2.38;;;20.20;99.90;;;;;;2091880;28;20021;-72
2023/07/17 04:40:41;;;;;;;3.60;1.83;;;20.20;99.90;;;;;;2090805;28;20354;-72
2023/07/17 04:41:42;;;;;;;3.15;1.80;;;20.20;99.90;;;;;;2092321;28;20025;-72
2023/07/17 04:42:42;;;;;;;3.20;2.08;;;20.10;99.90;;;;;;2092932;28;20494;-72
2023/07/17 04:43:43;;;;;;;3.03;2.30;;;20.20;99.90;;;;;;2094573;28;20016;-72
2023/07/17 04:44:44;;;;;;;3.72;2.17;;;20.20;99.90;;;;;;2092152;28;20037;-72
2023/07/17 04:45:44;;;;;;;3.65;1.85;;;20.20;99.90;;;;;;2092194;28;20051;-72
2023/07/17 04:46:45;;;;;;;3.08;2.20;;;20.20;99.90;;;;;;2093008;28;20059;-72
2023/07/17 04:47:45;;;;;;;3.20;1.95;;;20.20;99.90;;;;;;2091218;28;20029;-72
2023/07/17 04:48:46;;;;;;;2.90;2.08;;;20.20;99.90;;;;;;2095776;28;20033;-72
2023/07/17 04:49:47;;;;;;;3.58;2.40;;;20.30;99.90;;;;;;2092422;28;20033;-72
2023/07/17 04:50:47;;;;;;;4.18;2.25;;;20.30;99.90;;;;;;2090939;28;20464;-72
2023/07/17 04:51:48;;;;;;;3.60;2.13;;;20.40;99.90;;;;;;2092140;28;20063;-72
2023/07/17 04:52:48;;;;;;;4.65;2.20;;;20.30;99.90;;;;;;2092877;28;20399;-73
2023/07/17 04:53:49;;;;;;;5.75;2.28;;;20.40;99.90;;;;;;2091573;28;20064;-73
2023/07/17 04:54:50;;;;;;;4.80;2.63;;;20.50;99.90;;;;;;2091948;28;20090;-72
2023/07/17 04:55:51;;;;;;;5.25;2.22;;;20.50;99.90;;;;;;2091340;28;20021;-73
2023/07/17 04:56:52;;;;;;;3.75;1.85;;;20.50;99.90;;;;;;2091067;28;20493;-72
2023/07/17 04:57:52;;;;;;;3.25;2.17;;;20.60;99.90;;;;;;2091761;28;20060;-72
2023/07/17 04:58:53;;;;;;;3.58;2.05;;;20.60;99.90;;;;;;2090600;28;20114;-72
2023/07/17 04:59:54;;;;;;;2.75;1.85;;;20.60;99.90;;;;;;2092421;28;20027;-72
2023/07/17 05:01:02;;;;;;;6.00;2.10;;;20.70;99.90;;;;;;2091803;28;20068;-72
2023/07/17 05:02:02;;;;;;;4.93;1.90;;;20.80;99.90;;;;;;2092122;28;20029;-72
2023/07/17 05:03:03;;;;;;;3.28;1.90;;;20.80;99.90;;;;;;2092677;28;20025;-72
2023/07/17 05:04:04;;;;;;;3.15;1.80;;;20.90;99.90;;;;;;2097770;28;20028;-72
2023/07/17 05:05:05;;;;;;;3.60;2.08;;;20.90;99.90;;;;;;2097004;28;20168;-72
2023/07/17 05:06:05;;;;;;;3.58;1.92;;;21.00;99.90;;;;;;2092363;28;20472;-72
2023/07/17 05:07:06;;;;;;;2.00;1.80;;;21.00;99.90;;;;;;2091459;28;20465;-72
2023/07/17 05:08:06;;;;;;;3.53;1.80;;;21.10;99.90;;;;;;2094010;28;20024;-72
2023/07/17 05:09:07;;;;;;;8.75;2.17;;;21.10;99.90;;;;;;2092020;28;20495;-72
2023/07/17 05:10:10;;;;;;;5.30;2.15;;;21.20;99.90;;;;;;2092217;28;20033;-72
2023/07/17 05:11:11;;;;;;;5.72;1.80;;;21.30;99.90;;;;;;2092930;28;20035;-73
2023/07/17 05:12:11;;;;;;;3.58;2.22;;;21.30;99.90;;;;;;2092914;28;20032;-72
2023/07/17 05:13:12;;;;;;;3.58;1.83;;;21.40;99.90;;;;;;2091500;28;20024;-73
2023/07/17 05:14:13;;;;;;;3.03;2.03;;;21.40;99.90;;;;;;2092094;28;20034;-73
2023/07/17 05:15:13;;;;;;;3.58;2.20;;;21.50;99.90;;;;;;2092192;28;20033;-72
2023/07/17 05:16:14;;;;;;;4.05;2.10;;;21.50;99.90;;;;;;2093632;28;20388;-72
2023/07/17 05:17:15;;;;;;;4.60;2.42;;;21.60;99.90;;;;;;2092355;28;20090;-72